Terminal Aerodrome Forecast
Issued by NWS

Home | Current Version | Previous Version | Text Only | Print | Product List | Glossary On
Versions: 1 2 3 4 5 6 7 8 9 10 11 12 13 14 15 16 17 18 19 20 21 22 23 24 25 26 27 28 29 30 31 32 33 34 35 36 37 38 39 40 41 42 43 44
642
FTUS45 KCYS 282327
TAFLAR
TAF
KLAR 282327Z 2900/2924 02015G23KT P6SM -RA BKN015 OVC025
      TEMPO 2900/2904 2SM -SN OVC007
     FM290400 01010KT 1 1/2SM -SN BKN003 OVC007
     FM290900 36008KT 5SM -SN BKN004 OVC007
     FM291500 34008KT P6SM BKN015 BKN050
     FM291800 33011KT P6SM SCT250=

USA.gov is the U.S. government's official web portal to all federal, state and local government web resources and services.